sensor_id;sensor_type;location;lat;lon;timestamp;P1;durP1;ratioP1;P2;durP2;ratioP2
7929;SDS011;4010;42.698;23.124;2022-12-07T00:01:17;23.93;;;12.83;;
7929;SDS011;4010;42.698;23.124;2022-12-07T00:03:47;20.73;;;11.33;;
7929;SDS011;4010;42.698;23.124;2022-12-07T00:06:15;20.67;;;11.53;;
7929;SDS011;4010;42.698;23.124;2022-12-07T00:08:43;19.07;;;11.03;;
7929;SDS011;4010;42.698;23.124;2022-12-07T00:11:10;20.27;;;10.50;;
7929;SDS011;4010;42.698;23.124;2022-12-07T00:13:39;26.17;;;13.37;;
7929;SDS011;4010;42.698;23.124;2022-12-07T00:16:07;31.87;;;14.73;;
7929;SDS011;4010;42.698;23.124;2022-12-07T00:18:35;24.37;;;13.67;;
7929;SDS011;4010;42.698;23.124;2022-12-07T00:21:04;25.13;;;12.90;;
7929;SDS011;4010;42.698;23.124;2022-12-07T00:23:33;22.30;;;11.20;;
7929;SDS011;4010;42.698;23.124;2022-12-07T00:26:03;29.80;;;14.67;;
7929;SDS011;4010;42.698;23.124;2022-12-07T00:28:30;25.77;;;13.50;;
7929;SDS011;4010;42.698;23.124;2022-12-07T00:30:59;21.50;;;12.63;;
7929;SDS011;4010;42.698;23.124;2022-12-07T00:33:30;21.83;;;12.47;;
7929;SDS011;4010;42.698;23.124;2022-12-07T00:35:57;24.27;;;13.70;;
7929;SDS011;4010;42.698;23.124;2022-12-07T00:38:27;20.17;;;11.17;;
7929;SDS011;4010;42.698;23.124;2022-12-07T00:40:57;22.43;;;11.60;;
7929;SDS011;4010;42.698;23.124;2022-12-07T00:43:25;19.10;;;11.00;;
7929;SDS011;4010;42.698;23.124;2022-12-07T00:45:53;28.80;;;13.70;;
7929;SDS011;4010;42.698;23.124;2022-12-07T00:48:20;24.13;;;12.60;;
7929;SDS011;4010;42.698;23.124;2022-12-07T00:50:47;23.03;;;12.10;;
7929;SDS011;4010;42.698;23.124;2022-12-07T00:53:14;25.10;;;13.63;;
7929;SDS011;4010;42.698;23.124;2022-12-07T00:55:43;20.60;;;12.33;;
7929;SDS011;4010;42.698;23.124;2022-12-07T00:58:10;19.50;;;11.10;;
7929;SDS011;4010;42.698;23.124;2022-12-07T01:00:37;23.63;;;11.40;;
7929;SDS011;4010;42.698;23.124;2022-12-07T01:03:06;19.60;;;10.83;;
7929;SDS011;4010;42.698;23.124;2022-12-07T01:05:33;19.03;;;11.00;;
7929;SDS011;4010;42.698;23.124;2022-12-07T01:08:00;15.77;;;10.53;;
7929;SDS011;4010;42.698;23.124;2022-12-07T01:10:27;17.57;;;10.17;;
7929;SDS011;4010;42.698;23.124;2022-12-07T01:12:56;23.87;;;12.33;;
7929;SDS011;4010;42.698;23.124;2022-12-07T01:15:24;21.60;;;11.73;;
7929;SDS011;4010;42.698;23.124;2022-12-07T01:17:51;25.57;;;13.03;;
7929;SDS011;4010;42.698;23.124;2022-12-07T01:20:19;23.83;;;11.87;;
7929;SDS011;4010;42.698;23.124;2022-12-07T01:22:46;18.23;;;11.17;;
7929;SDS011;4010;42.698;23.124;2022-12-07T01:25:13;18.23;;;10.83;;
7929;SDS011;4010;42.698;23.124;2022-12-07T01:27:39;25.00;;;12.80;;
7929;SDS011;4010;42.698;23.124;2022-12-07T01:30:09;20.87;;;12.27;;
7929;SDS011;4010;42.698;23.124;2022-12-07T01:32:37;33.60;;;15.70;;
7929;SDS011;4010;42.698;23.124;2022-12-07T01:35:04;26.80;;;14.57;;
7929;SDS011;4010;42.698;23.124;2022-12-07T01:37:33;23.03;;;11.97;;
7929;SDS011;4010;42.698;23.124;2022-12-07T01:40:01;22.30;;;13.17;;
7929;SDS011;4010;42.698;23.124;2022-12-07T01:42:28;26.87;;;11.73;;
7929;SDS011;4010;42.698;23.124;2022-12-07T01:48:11;20.17;;;11.40;;
7929;SDS011;4010;42.698;23.124;2022-12-07T01:50:41;21.47;;;11.97;;
7929;SDS011;4010;42.698;23.124;2022-12-07T01:53:10;23.57;;;12.27;;
7929;SDS011;4010;42.698;23.124;2022-12-07T01:55:40;20.83;;;12.83;;
7929;SDS011;4010;42.698;23.124;2022-12-07T01:58:10;22.63;;;13.07;;
7929;SDS011;4010;42.698;23.124;2022-12-07T02:00:38;29.27;;;13.67;;
7929;SDS011;4010;42.698;23.124;2022-12-07T02:03:08;27.80;;;13.03;;
7929;SDS011;4010;42.698;23.124;2022-12-07T02:05:40;24.83;;;12.50;;
7929;SDS011;4010;42.698;23.124;2022-12-07T02:08:08;24.37;;;12.00;;
7929;SDS011;4010;42.698;23.124;2022-12-07T02:10:37;23.73;;;12.90;;
7929;SDS011;4010;42.698;23.124;2022-12-07T02:13:04;24.70;;;12.13;;
7929;SDS011;4010;42.698;23.124;2022-12-07T02:15:38;29.57;;;14.27;;
7929;SDS011;4010;42.698;23.124;2022-12-07T02:18:16;22.80;;;11.90;;
7929;SDS011;4010;42.698;23.124;2022-12-07T02:20:51;23.27;;;10.87;;
7929;SDS011;4010;42.698;23.124;2022-12-07T02:29:42;22.83;;;11.13;;
7929;SDS011;4010;42.698;23.124;2022-12-07T02:32:15;17.53;;;10.20;;
7929;SDS011;4010;42.698;23.124;2022-12-07T02:34:48;27.17;;;11.37;;
7929;SDS011;4010;42.698;23.124;2022-12-07T02:37:23;20.57;;;10.30;;
7929;SDS011;4010;42.698;23.124;2022-12-07T02:39:55;17.13;;;10.30;;
7929;SDS011;4010;42.698;23.124;2022-12-07T02:42:27;19.57;;;10.37;;
7929;SDS011;4010;42.698;23.124;2022-12-07T02:44:59;22.87;;;10.63;;
7929;SDS011;4010;42.698;23.124;2022-12-07T02:47:27;22.87;;;11.70;;
7929;SDS011;4010;42.698;23.124;2022-12-07T02:49:57;22.30;;;10.20;;
7929;SDS011;4010;42.698;23.124;2022-12-07T02:52:24;18.77;;;9.67;;
7929;SDS011;4010;42.698;23.124;2022-12-07T02:54:51;20.97;;;10.33;;
7929;SDS011;4010;42.698;23.124;2022-12-07T02:57:26;23.13;;;12.63;;
7929;SDS011;4010;42.698;23.124;2022-12-07T03:00:04;23.00;;;12.37;;
7929;SDS011;4010;42.698;23.124;2022-12-07T03:02:38;22.27;;;12.27;;
7929;SDS011;4010;42.698;23.124;2022-12-07T03:05:13;19.43;;;11.30;;
7929;SDS011;4010;42.698;23.124;2022-12-07T03:07:59;19.30;;;10.73;;
7929;SDS011;4010;42.698;23.124;2022-12-07T03:10:33;20.53;;;11.60;;
7929;SDS011;4010;42.698;23.124;2022-12-07T03:13:08;17.70;;;10.67;;
7929;SDS011;4010;42.698;23.124;2022-12-07T03:15:45;17.53;;;10.03;;
7929;SDS011;4010;42.698;23.124;2022-12-07T03:18:20;14.87;;;10.00;;
7929;SDS011;4010;42.698;23.124;2022-12-07T03:20:51;19.27;;;10.97;;
7929;SDS011;4010;42.698;23.124;2022-12-07T03:23:21;23.90;;;10.67;;
7929;SDS011;4010;42.698;23.124;2022-12-07T03:25:52;17.63;;;12.03;;
7929;SDS011;4010;42.698;23.124;2022-12-07T03:28:23;21.13;;;11.10;;
7929;SDS011;4010;42.698;23.124;2022-12-07T03:30:55;21.40;;;12.47;;
7929;SDS011;4010;42.698;23.124;2022-12-07T03:33:27;20.77;;;11.60;;
7929;SDS011;4010;42.698;23.124;2022-12-07T03:35:58;20.40;;;12.70;;
7929;SDS011;4010;42.698;23.124;2022-12-07T03:38:32;21.70;;;11.53;;
7929;SDS011;4010;42.698;23.124;2022-12-07T03:41:05;18.27;;;10.63;;
7929;SDS011;4010;42.698;23.124;2022-12-07T03:43:35;28.63;;;11.00;;
7929;SDS011;4010;42.698;23.124;2022-12-07T03:46:07;22.97;;;11.23;;
7929;SDS011;4010;42.698;23.124;2022-12-07T03:48:45;18.37;;;10.50;;
7929;SDS011;4010;42.698;23.124;2022-12-07T03:51:20;20.07;;;11.20;;
7929;SDS011;4010;42.698;23.124;2022-12-07T03:53:52;20.17;;;10.50;;
7929;SDS011;4010;42.698;23.124;2022-12-07T03:56:24;17.67;;;11.43;;
7929;SDS011;4010;42.698;23.124;2022-12-07T03:58:54;20.00;;;10.87;;
7929;SDS011;4010;42.698;23.124;2022-12-07T04:01:23;21.50;;;11.67;;
7929;SDS011;4010;42.698;23.124;2022-12-07T04:03:50;19.07;;;10.80;;
7929;SDS011;4010;42.698;23.124;2022-12-07T04:06:17;21.67;;;11.17;;
7929;SDS011;4010;42.698;23.124;2022-12-07T04:08:43;20.47;;;11.37;;
7929;SDS011;4010;42.698;23.124;2022-12-07T04:11:10;20.73;;;11.10;;
7929;SDS011;4010;42.698;23.124;2022-12-07T04:13:37;20.00;;;12.00;;
7929;SDS011;4010;42.698;23.124;2022-12-07T04:16:17;20.23;;;11.33;;
7929;SDS011;4010;42.698;23.124;2022-12-07T04:18:45;24.40;;;12.17;;
7929;SDS011;4010;42.698;23.124;2022-12-07T04:21:12;34.10;;;14.87;;
7929;SDS011;4010;42.698;23.124;2022-12-07T04:23:39;19.40;;;11.10;;
7929;SDS011;4010;42.698;23.124;2022-12-07T04:26:05;24.93;;;12.20;;
7929;SDS011;4010;42.698;23.124;2022-12-07T04:28:32;20.93;;;13.37;;
7929;SDS011;4010;42.698;23.124;2022-12-07T04:30:59;22.07;;;12.17;;
7929;SDS011;4010;42.698;23.124;2022-12-07T04:33:25;23.30;;;11.00;;
7929;SDS011;4010;42.698;23.124;2022-12-07T04:35:53;20.67;;;11.47;;
7929;SDS011;4010;42.698;23.124;2022-12-07T04:38:20;23.40;;;11.47;;
7929;SDS011;4010;42.698;23.124;2022-12-07T04:40:47;20.80;;;11.97;;
7929;SDS011;4010;42.698;23.124;2022-12-07T04:43:13;20.43;;;12.13;;
7929;SDS011;4010;42.698;23.124;2022-12-07T04:45:44;25.90;;;12.43;;
7929;SDS011;4010;42.698;23.124;2022-12-07T04:48:12;19.37;;;12.10;;
7929;SDS011;4010;42.698;23.124;2022-12-07T04:50:39;19.13;;;11.37;;
7929;SDS011;4010;42.698;23.124;2022-12-07T04:53:07;22.03;;;12.13;;
7929;SDS011;4010;42.698;23.124;2022-12-07T04:55:33;24.63;;;12.63;;
7929;SDS011;4010;42.698;23.124;2022-12-07T04:58:00;21.03;;;11.40;;
7929;SDS011;4010;42.698;23.124;2022-12-07T05:00:27;24.07;;;12.47;;
7929;SDS011;4010;42.698;23.124;2022-12-07T05:02:53;23.63;;;12.00;;
7929;SDS011;4010;42.698;23.124;2022-12-07T05:05:20;19.73;;;10.90;;
7929;SDS011;4010;42.698;23.124;2022-12-07T05:07:47;20.80;;;12.73;;
7929;SDS011;4010;42.698;23.124;2022-12-07T05:10:15;24.37;;;10.93;;
7929;SDS011;4010;42.698;23.124;2022-12-07T05:12:42;18.37;;;11.70;;
7929;SDS011;4010;42.698;23.124;2022-12-07T05:15:09;22.40;;;12.97;;
7929;SDS011;4010;42.698;23.124;2022-12-07T05:17:36;19.17;;;11.47;;
7929;SDS011;4010;42.698;23.124;2022-12-07T05:20:03;21.73;;;11.23;;
7929;SDS011;4010;42.698;23.124;2022-12-07T05:22:30;21.90;;;11.13;;
7929;SDS011;4010;42.698;23.124;2022-12-07T05:24:57;19.80;;;10.83;;
7929;SDS011;4010;42.698;23.124;2022-12-07T05:27:25;18.17;;;9.97;;
7929;SDS011;4010;42.698;23.124;2022-12-07T05:29:52;18.33;;;10.60;;
7929;SDS011;4010;42.698;23.124;2022-12-07T05:32:19;21.10;;;11.97;;
7929;SDS011;4010;42.698;23.124;2022-12-07T05:34:45;20.10;;;10.97;;
7929;SDS011;4010;42.698;23.124;2022-12-07T05:37:12;24.70;;;11.47;;
7929;SDS011;4010;42.698;23.124;2022-12-07T05:39:39;24.50;;;13.47;;
7929;SDS011;4010;42.698;23.124;2022-12-07T05:42:08;18.97;;;11.27;;
7929;SDS011;4010;42.698;23.124;2022-12-07T05:44:40;27.70;;;13.03;;
7929;SDS011;4010;42.698;23.124;2022-12-07T05:47:08;24.83;;;12.60;;
7929;SDS011;4010;42.698;23.124;2022-12-07T05:49:35;28.43;;;14.93;;
7929;SDS011;4010;42.698;23.124;2022-12-07T05:52:02;22.97;;;14.67;;
7929;SDS011;4010;42.698;23.124;2022-12-07T05:54:29;26.40;;;15.33;;
7929;SDS011;4010;42.698;23.124;2022-12-07T05:56:56;24.10;;;14.37;;
7929;SDS011;4010;42.698;23.124;2022-12-07T05:59:22;27.00;;;13.53;;
7929;SDS011;4010;42.698;23.124;2022-12-07T06:01:49;30.43;;;14.87;;
7929;SDS011;4010;42.698;23.124;2022-12-07T06:04:17;23.70;;;14.00;;
7929;SDS011;4010;42.698;23.124;2022-12-07T06:06:44;25.33;;;14.80;;
7929;SDS011;4010;42.698;23.124;2022-12-07T06:09:11;32.90;;;16.07;;
7929;SDS011;4010;42.698;23.124;2022-12-07T06:11:39;25.50;;;15.27;;
7929;SDS011;4010;42.698;23.124;2022-12-07T06:14:24;28.40;;;16.50;;
7929;SDS011;4010;42.698;23.124;2022-12-07T06:16:52;29.33;;;16.67;;
7929;SDS011;4010;42.698;23.124;2022-12-07T06:19:18;27.73;;;16.67;;
7929;SDS011;4010;42.698;23.124;2022-12-07T06:21:45;34.87;;;16.87;;
7929;SDS011;4010;42.698;23.124;2022-12-07T06:24:13;29.17;;;14.60;;
7929;SDS011;4010;42.698;23.124;2022-12-07T06:26:40;23.47;;;13.20;;
7929;SDS011;4010;42.698;23.124;2022-12-07T06:29:07;29.87;;;14.50;;
7929;SDS011;4010;42.698;23.124;2022-12-07T06:31:34;25.77;;;14.07;;
7929;SDS011;4010;42.698;23.124;2022-12-07T06:34:03;26.23;;;14.60;;
7929;SDS011;4010;42.698;23.124;2022-12-07T06:36:31;30.27;;;16.77;;
7929;SDS011;4010;42.698;23.124;2022-12-07T06:38:59;36.43;;;18.40;;
7929;SDS011;4010;42.698;23.124;2022-12-07T06:41:25;40.03;;;21.17;;
7929;SDS011;4010;42.698;23.124;2022-12-07T06:43:52;29.47;;;15.87;;
7929;SDS011;4010;42.698;23.124;2022-12-07T06:46:19;27.90;;;15.53;;
7929;SDS011;4010;42.698;23.124;2022-12-07T06:48:46;30.53;;;17.50;;
7929;SDS011;4010;42.698;23.124;2022-12-07T06:51:14;26.67;;;15.90;;
7929;SDS011;4010;42.698;23.124;2022-12-07T06:53:41;32.43;;;14.83;;
7929;SDS011;4010;42.698;23.124;2022-12-07T06:56:08;23.37;;;12.50;;
7929;SDS011;4010;42.698;23.124;2022-12-07T06:58:34;24.43;;;14.00;;
7929;SDS011;4010;42.698;23.124;2022-12-07T07:01:07;37.67;;;22.83;;
7929;SDS011;4010;42.698;23.124;2022-12-07T07:03:36;33.53;;;19.27;;
7929;SDS011;4010;42.698;23.124;2022-12-07T07:06:03;27.13;;;16.63;;
7929;SDS011;4010;42.698;23.124;2022-12-07T07:08:32;49.23;;;31.60;;
7929;SDS011;4010;42.698;23.124;2022-12-07T07:10:59;30.53;;;15.57;;
7929;SDS011;4010;42.698;23.124;2022-12-07T07:13:26;30.13;;;14.63;;
7929;SDS011;4010;42.698;23.124;2022-12-07T07:15:53;28.70;;;14.93;;
7929;SDS011;4010;42.698;23.124;2022-12-07T07:18:20;30.47;;;13.63;;
7929;SDS011;4010;42.698;23.124;2022-12-07T07:20:46;30.83;;;16.37;;
7929;SDS011;4010;42.698;23.124;2022-12-07T07:23:13;30.73;;;14.27;;
7929;SDS011;4010;42.698;23.124;2022-12-07T07:25:41;30.33;;;14.10;;
7929;SDS011;4010;42.698;23.124;2022-12-07T07:28:08;36.07;;;17.50;;
7929;SDS011;4010;42.698;23.124;2022-12-07T07:30:35;26.83;;;15.97;;
7929;SDS011;4010;42.698;23.124;2022-12-07T07:33:02;28.33;;;14.30;;
7929;SDS011;4010;42.698;23.124;2022-12-07T07:35:30;27.13;;;14.23;;
7929;SDS011;4010;42.698;23.124;2022-12-07T07:37:58;26.87;;;14.60;;
7929;SDS011;4010;42.698;23.124;2022-12-07T07:40:25;33.63;;;16.00;;
7929;SDS011;4010;42.698;23.124;2022-12-07T07:42:55;29.37;;;16.17;;
7929;SDS011;4010;42.698;23.124;2022-12-07T07:45:22;25.33;;;13.50;;
7929;SDS011;4010;42.698;23.124;2022-12-07T07:47:51;26.10;;;14.47;;
7929;SDS011;4010;42.698;23.124;2022-12-07T07:50:18;26.63;;;13.90;;
7929;SDS011;4010;42.698;23.124;2022-12-07T07:52:45;43.97;;;21.57;;
7929;SDS011;4010;42.698;23.124;2022-12-07T07:55:12;31.50;;;16.10;;
7929;SDS011;4010;42.698;23.124;2022-12-07T07:57:39;25.93;;;13.00;;
7929;SDS011;4010;42.698;23.124;2022-12-07T08:00:09;30.90;;;14.57;;
7929;SDS011;4010;42.698;23.124;2022-12-07T08:02:37;27.50;;;14.20;;
7929;SDS011;4010;42.698;23.124;2022-12-07T08:05:05;31.43;;;16.73;;
7929;SDS011;4010;42.698;23.124;2022-12-07T08:07:32;22.50;;;14.77;;
7929;SDS011;4010;42.698;23.124;2022-12-07T08:09:59;27.80;;;13.67;;
7929;SDS011;4010;42.698;23.124;2022-12-07T08:12:26;29.33;;;13.67;;
7929;SDS011;4010;42.698;23.124;2022-12-07T08:14:53;25.37;;;14.60;;
7929;SDS011;4010;42.698;23.124;2022-12-07T08:17:21;29.80;;;17.20;;
7929;SDS011;4010;42.698;23.124;2022-12-07T08:19:47;25.93;;;14.23;;
7929;SDS011;4010;42.698;23.124;2022-12-07T08:22:15;23.73;;;13.20;;
7929;SDS011;4010;42.698;23.124;2022-12-07T08:24:41;23.60;;;13.17;;
7929;SDS011;4010;42.698;23.124;2022-12-07T08:27:08;25.97;;;15.60;;
7929;SDS011;4010;42.698;23.124;2022-12-07T08:29:35;21.30;;;12.17;;
7929;SDS011;4010;42.698;23.124;2022-12-07T08:32:02;21.97;;;12.53;;
7929;SDS011;4010;42.698;23.124;2022-12-07T08:34:30;26.67;;;14.37;;
7929;SDS011;4010;42.698;23.124;2022-12-07T08:36:57;24.30;;;12.70;;
7929;SDS011;4010;42.698;23.124;2022-12-07T08:39:24;23.17;;;13.13;;
7929;SDS011;4010;42.698;23.124;2022-12-07T08:41:50;23.03;;;12.17;;
7929;SDS011;4010;42.698;23.124;2022-12-07T08:44:17;21.07;;;10.90;;
7929;SDS011;4010;42.698;23.124;2022-12-07T08:46:44;21.70;;;11.77;;
7929;SDS011;4010;42.698;23.124;2022-12-07T08:49:14;22.57;;;11.60;;
7929;SDS011;4010;42.698;23.124;2022-12-07T08:51:45;24.77;;;14.83;;
7929;SDS011;4010;42.698;23.124;2022-12-07T08:54:13;19.43;;;12.27;;
7929;SDS011;4010;42.698;23.124;2022-12-07T08:56:42;18.13;;;11.27;;
7929;SDS011;4010;42.698;23.124;2022-12-07T08:59:12;18.20;;;12.77;;
7929;SDS011;4010;42.698;23.124;2022-12-07T09:01:41;25.43;;;13.30;;
7929;SDS011;4010;42.698;23.124;2022-12-07T09:04:07;22.70;;;11.33;;
7929;SDS011;4010;42.698;23.124;2022-12-07T09:06:34;22.37;;;11.23;;
7929;SDS011;4010;42.698;23.124;2022-12-07T09:09:03;18.27;;;10.70;;
7929;SDS011;4010;42.698;23.124;2022-12-07T09:11:30;19.03;;;11.40;;
7929;SDS011;4010;42.698;23.124;2022-12-07T09:13:57;18.07;;;11.27;;
7929;SDS011;4010;42.698;23.124;2022-12-07T09:16:23;18.67;;;10.53;;
7929;SDS011;4010;42.698;23.124;2022-12-07T09:18:50;18.47;;;10.57;;
7929;SDS011;4010;42.698;23.124;2022-12-07T09:21:17;17.13;;;11.20;;
7929;SDS011;4010;42.698;23.124;2022-12-07T09:23:43;21.17;;;11.83;;
7929;SDS011;4010;42.698;23.124;2022-12-07T09:26:11;20.17;;;10.77;;
7929;SDS011;4010;42.698;23.124;2022-12-07T09:28:38;17.87;;;11.53;;
7929;SDS011;4010;42.698;23.124;2022-12-07T09:31:05;17.77;;;10.93;;
7929;SDS011;4010;42.698;23.124;2022-12-07T09:33:32;26.30;;;15.67;;
7929;SDS011;4010;42.698;23.124;2022-12-07T09:35:59;18.00;;;10.23;;
7929;SDS011;4010;42.698;23.124;2022-12-07T09:38:26;18.10;;;10.60;;
7929;SDS011;4010;42.698;23.124;2022-12-07T09:40:54;18.30;;;10.83;;
7929;SDS011;4010;42.698;23.124;2022-12-07T09:43:24;21.20;;;10.60;;
7929;SDS011;4010;42.698;23.124;2022-12-07T09:45:52;24.80;;;14.73;;
7929;SDS011;4010;42.698;23.124;2022-12-07T09:48:21;19.03;;;10.67;;
7929;SDS011;4010;42.698;23.124;2022-12-07T09:50:57;19.43;;;11.20;;
7929;SDS011;4010;42.698;23.124;2022-12-07T09:53:25;18.33;;;10.87;;
7929;SDS011;4010;42.698;23.124;2022-12-07T09:55:54;20.97;;;11.03;;
7929;SDS011;4010;42.698;23.124;2022-12-07T09:58:22;20.47;;;11.47;;
7929;SDS011;4010;42.698;23.124;2022-12-07T10:00:52;17.77;;;11.53;;
7929;SDS011;4010;42.698;23.124;2022-12-07T10:03:22;22.43;;;12.67;;
7929;SDS011;4010;42.698;23.124;2022-12-07T10:05:49;23.87;;;13.83;;
7929;SDS011;4010;42.698;23.124;2022-12-07T10:08:18;23.03;;;14.37;;
7929;SDS011;4010;42.698;23.124;2022-12-07T10:10:46;24.60;;;13.97;;
7929;SDS011;4010;42.698;23.124;2022-12-07T10:13:18;26.30;;;13.93;;
7929;SDS011;4010;42.698;23.124;2022-12-07T10:15:49;25.50;;;14.83;;
7929;SDS011;4010;42.698;23.124;2022-12-07T10:18:25;27.40;;;15.33;;
7929;SDS011;4010;42.698;23.124;2022-12-07T10:21:02;23.30;;;14.13;;
7929;SDS011;4010;42.698;23.124;2022-12-07T10:23:32;23.10;;;14.60;;
7929;SDS011;4010;42.698;23.124;2022-12-07T10:26:01;24.13;;;14.43;;
7929;SDS011;4010;42.698;23.124;2022-12-07T10:28:46;25.90;;;14.70;;
7929;SDS011;4010;42.698;23.124;2022-12-07T10:31:16;24.57;;;15.10;;
7929;SDS011;4010;42.698;23.124;2022-12-07T10:33:49;26.67;;;15.03;;
7929;SDS011;4010;42.698;23.124;2022-12-07T10:36:19;25.93;;;15.13;;
7929;SDS011;4010;42.698;23.124;2022-12-07T10:38:49;24.37;;;15.40;;
7929;SDS011;4010;42.698;23.124;2022-12-07T10:41:17;26.47;;;15.60;;
7929;SDS011;4010;42.698;23.124;2022-12-07T10:43:52;31.53;;;21.10;;
7929;SDS011;4010;42.698;23.124;2022-12-07T10:52:34;30.10;;;16.43;;
7929;SDS011;4010;42.698;23.124;2022-12-07T10:55:13;25.17;;;16.53;;
7929;SDS011;4010;42.698;23.124;2022-12-07T10:57:47;23.67;;;15.70;;
7929;SDS011;4010;42.698;23.124;2022-12-07T11:00:28;24.13;;;16.17;;
7929;SDS011;4010;42.698;23.124;2022-12-07T11:03:10;25.23;;;15.67;;
7929;SDS011;4010;42.698;23.124;2022-12-07T11:06:01;23.70;;;15.37;;
7929;SDS011;4010;42.698;23.124;2022-12-07T11:08:43;23.83;;;15.23;;
7929;SDS011;4010;42.698;23.124;2022-12-07T11:11:19;22.83;;;14.93;;
7929;SDS011;4010;42.698;23.124;2022-12-07T11:13:53;24.23;;;15.50;;
7929;SDS011;4010;42.698;23.124;2022-12-07T11:16:29;22.27;;;13.87;;
7929;SDS011;4010;42.698;23.124;2022-12-07T11:19:10;25.47;;;14.40;;
7929;SDS011;4010;42.698;23.124;2022-12-07T11:22:12;23.73;;;14.27;;
7929;SDS011;4010;42.698;23.124;2022-12-07T11:24:46;19.30;;;12.97;;
7929;SDS011;4010;42.698;23.124;2022-12-07T11:27:23;24.63;;;14.27;;
7929;SDS011;4010;42.698;23.124;2022-12-07T11:30:13;50.40;;;28.83;;
7929;SDS011;4010;42.698;23.124;2022-12-07T11:32:49;23.30;;;14.87;;
7929;SDS011;4010;42.698;23.124;2022-12-07T11:35:36;23.00;;;13.67;;
7929;SDS011;4010;42.698;23.124;2022-12-07T11:38:10;21.03;;;13.57;;
7929;SDS011;4010;42.698;23.124;2022-12-07T11:40:40;20.47;;;14.47;;
7929;SDS011;4010;42.698;23.124;2022-12-07T11:43:13;24.87;;;14.87;;
7929;SDS011;4010;42.698;23.124;2022-12-07T11:45:47;18.77;;;12.23;;
7929;SDS011;4010;42.698;23.124;2022-12-07T11:48:20;20.63;;;12.73;;
7929;SDS011;4010;42.698;23.124;2022-12-07T11:50:52;23.90;;;12.60;;
7929;SDS011;4010;42.698;23.124;2022-12-07T11:53:24;25.33;;;13.10;;
7929;SDS011;4010;42.698;23.124;2022-12-07T11:55:54;24.13;;;13.73;;
7929;SDS011;4010;42.698;23.124;2022-12-07T11:58:39;24.03;;;13.43;;
7929;SDS011;4010;42.698;23.124;2022-12-07T12:01:19;18.00;;;13.10;;
7929;SDS011;4010;42.698;23.124;2022-12-07T12:03:56;22.67;;;13.73;;
7929;SDS011;4010;42.698;23.124;2022-12-07T12:06:28;23.53;;;14.10;;
7929;SDS011;4010;42.698;23.124;2022-12-07T12:08:58;23.83;;;13.40;;
7929;SDS011;4010;42.698;23.124;2022-12-07T12:11:36;23.03;;;13.83;;
7929;SDS011;4010;42.698;23.124;2022-12-07T12:14:24;20.80;;;13.37;;
7929;SDS011;4010;42.698;23.124;2022-12-07T12:17:14;24.23;;;12.93;;
7929;SDS011;4010;42.698;23.124;2022-12-07T12:20:04;22.93;;;14.93;;
7929;SDS011;4010;42.698;23.124;2022-12-07T12:22:43;26.27;;;15.47;;
7929;SDS011;4010;42.698;23.124;2022-12-07T12:25:15;25.63;;;14.13;;
7929;SDS011;4010;42.698;23.124;2022-12-07T12:27:47;24.50;;;14.77;;
7929;SDS011;4010;42.698;23.124;2022-12-07T12:30:33;25.17;;;15.67;;
7929;SDS011;4010;42.698;23.124;2022-12-07T12:33:02;28.10;;;16.30;;
7929;SDS011;4010;42.698;23.124;2022-12-07T12:35:32;24.67;;;15.17;;
7929;SDS011;4010;42.698;23.124;2022-12-07T12:40:58;30.03;;;16.73;;
7929;SDS011;4010;42.698;23.124;2022-12-07T12:43:39;25.17;;;15.50;;
7929;SDS011;4010;42.698;23.124;2022-12-07T12:52:27;24.90;;;15.10;;
7929;SDS011;4010;42.698;23.124;2022-12-07T12:55:15;23.97;;;15.07;;
7929;SDS011;4010;42.698;23.124;2022-12-07T12:57:46;25.40;;;16.07;;
7929;SDS011;4010;42.698;23.124;2022-12-07T13:00:17;31.93;;;16.97;;
7929;SDS011;4010;42.698;23.124;2022-12-07T13:02:49;26.27;;;17.47;;
7929;SDS011;4010;42.698;23.124;2022-12-07T13:05:18;32.53;;;17.10;;
7929;SDS011;4010;42.698;23.124;2022-12-07T13:07:58;26.73;;;16.67;;
7929;SDS011;4010;42.698;23.124;2022-12-07T13:10:33;25.27;;;16.50;;
7929;SDS011;4010;42.698;23.124;2022-12-07T13:13:30;27.83;;;17.83;;
7929;SDS011;4010;42.698;23.124;2022-12-07T13:22:35;28.33;;;17.20;;
7929;SDS011;4010;42.698;23.124;2022-12-07T13:25:09;30.10;;;17.20;;
7929;SDS011;4010;42.698;23.124;2022-12-07T13:27:40;23.13;;;15.97;;
7929;SDS011;4010;42.698;23.124;2022-12-07T13:30:13;28.93;;;16.27;;
7929;SDS011;4010;42.698;23.124;2022-12-07T13:32:41;26.47;;;16.40;;
7929;SDS011;4010;42.698;23.124;2022-12-07T13:35:31;29.30;;;15.10;;
7929;SDS011;4010;42.698;23.124;2022-12-07T13:38:01;25.30;;;14.77;;
7929;SDS011;4010;42.698;23.124;2022-12-07T13:40:30;21.97;;;14.73;;
7929;SDS011;4010;42.698;23.124;2022-12-07T13:42:58;21.70;;;14.63;;
7929;SDS011;4010;42.698;23.124;2022-12-07T13:45:27;27.83;;;17.23;;
7929;SDS011;4010;42.698;23.124;2022-12-07T13:48:08;26.17;;;15.67;;
7929;SDS011;4010;42.698;23.124;2022-12-07T13:50:41;26.07;;;15.80;;
7929;SDS011;4010;42.698;23.124;2022-12-07T13:53:11;25.50;;;14.97;;
7929;SDS011;4010;42.698;23.124;2022-12-07T13:55:44;20.97;;;12.93;;
7929;SDS011;4010;42.698;23.124;2022-12-07T13:58:13;22.53;;;12.40;;
7929;SDS011;4010;42.698;23.124;2022-12-07T14:00:40;22.37;;;13.40;;
7929;SDS011;4010;42.698;23.124;2022-12-07T14:03:23;14.93;;;8.73;;
7929;SDS011;4010;42.698;23.124;2022-12-07T14:09:05;5.83;;;4.40;;
7929;SDS011;4010;42.698;23.124;2022-12-07T14:11:35;10.07;;;4.50;;
7929;SDS011;4010;42.698;23.124;2022-12-07T14:14:05;5.57;;;2.73;;
7929;SDS011;4010;42.698;23.124;2022-12-07T14:16:32;5.73;;;3.10;;
7929;SDS011;4010;42.698;23.124;2022-12-07T14:19:01;4.57;;;2.90;;
7929;SDS011;4010;42.698;23.124;2022-12-07T14:21:30;6.87;;;2.70;;
7929;SDS011;4010;42.698;23.124;2022-12-07T14:24:08;6.13;;;2.90;;
7929;SDS011;4010;42.698;23.124;2022-12-07T14:26:38;4.40;;;2.73;;
7929;SDS011;4010;42.698;23.124;2022-12-07T14:32:10;3.27;;;2.97;;
7929;SDS011;4010;42.698;23.124;2022-12-07T14:34:53;15.10;;;7.63;;
7929;SDS011;4010;42.698;23.124;2022-12-07T14:37:20;11.77;;;8.13;;
7929;SDS011;4010;42.698;23.124;2022-12-07T14:39:47;14.33;;;8.07;;
7929;SDS011;4010;42.698;23.124;2022-12-07T14:42:13;15.13;;;10.93;;
7929;SDS011;4010;42.698;23.124;2022-12-07T14:44:42;12.80;;;11.00;;
7929;SDS011;4010;42.698;23.124;2022-12-07T14:47:09;9.63;;;6.60;;
7929;SDS011;4010;42.698;23.124;2022-12-07T14:49:36;11.17;;;7.93;;
7929;SDS011;4010;42.698;23.124;2022-12-07T14:52:03;13.10;;;7.63;;
7929;SDS011;4010;42.698;23.124;2022-12-07T14:54:31;11.10;;;7.60;;
7929;SDS011;4010;42.698;23.124;2022-12-07T14:56:59;20.57;;;10.97;;
7929;SDS011;4010;42.698;23.124;2022-12-07T14:59:25;15.27;;;8.97;;
7929;SDS011;4010;42.698;23.124;2022-12-07T15:01:53;18.20;;;10.17;;
7929;SDS011;4010;42.698;23.124;2022-12-07T15:04:20;29.37;;;12.07;;
7929;SDS011;4010;42.698;23.124;2022-12-07T15:06:54;28.33;;;16.60;;
7929;SDS011;4010;42.698;23.124;2022-12-07T15:09:22;25.40;;;14.23;;
7929;SDS011;4010;42.698;23.124;2022-12-07T15:11:48;24.53;;;12.50;;
7929;SDS011;4010;42.698;23.124;2022-12-07T15:14:15;16.53;;;10.97;;
7929;SDS011;4010;42.698;23.124;2022-12-07T15:16:42;17.87;;;9.43;;
7929;SDS011;4010;42.698;23.124;2022-12-07T15:19:16;15.67;;;9.77;;
7929;SDS011;4010;42.698;23.124;2022-12-07T15:21:44;24.73;;;12.43;;
7929;SDS011;4010;42.698;23.124;2022-12-07T15:24:11;22.83;;;14.50;;
7929;SDS011;4010;42.698;23.124;2022-12-07T15:26:38;45.53;;;29.07;;
7929;SDS011;4010;42.698;23.124;2022-12-07T15:29:06;39.20;;;24.43;;
7929;SDS011;4010;42.698;23.124;2022-12-07T15:31:34;26.27;;;15.87;;